Time;durP1;ratioP1;P1;durP2;ratioP2;P2;SDS_P1;SDS_P2;PMS_P1;PMS_P2;Temp;Humidity;BMP_temperature;BMP_pressure;BME280_temperature;BME280_humidity;BME280_pressure;Samples;Min_cycle;Max_cycle;Signal;HPM_P1;HPM_P2
2023/04/17 00:01:40;;;;;;;1.70;1.20;;;;;;;;;;5032093;28;20041;-66
2023/04/17 00:04:09;;;;;;;2.20;1.40;;;;;;;;;;5050426;28;20049;-64
2023/04/17 00:06:44;;;;;;;2.50;1.30;;;;;;;;;;5039196;28;20035;-63
2023/04/17 00:09:09;;;;;;;2.10;1.30;;;;;;;;;;5030695;28;20045;-71
2023/04/17 00:11:34;;;;;;;1.48;0.98;;;;;;;;;;5039045;28;20099;-64
2023/04/17 00:14:00;;;;;;;2.60;1.17;;;;;;;;;;5044102;28;20045;-70
2023/04/17 00:16:25;;;;;;;2.83;1.10;;;;;;;;;;5042085;28;20033;-65
2023/04/17 00:18:51;;;;;;;1.85;1.25;;;;;;;;;;5036456;28;20311;-68
2023/04/17 00:21:16;;;;;;;1.60;1.00;;;;;;;;;;5045931;28;20032;-61
2023/04/17 00:23:41;;;;;;;1.70;1.03;;;;;;;;;;5046199;28;20559;-67
2023/04/17 00:26:07;;;;;;;2.20;1.20;;;;;;;;;;5044231;28;20502;-74
2023/04/17 00:28:32;;;;;;;1.93;1.10;;;;;;;;;;5045893;28;20775;-72
2023/04/17 00:30:57;;;;;;;2.10;1.10;;;;;;;;;;5044314;28;20322;-72
2023/04/17 00:33:23;;;;;;;1.77;1.20;;;;;;;;;;5044334;28;20028;-76
2023/04/17 00:35:48;;;;;;;1.77;1.03;;;;;;;;;;5046012;28;20025;-76
2023/04/17 00:38:13;;;;;;;2.45;1.20;;;;;;;;;;5038567;28;20373;-71
2023/04/17 00:40:38;;;;;;;1.90;1.27;;;;;;;;;;5043751;28;20389;-70
2023/04/17 00:43:05;;;;;;;1.70;1.20;;;;;;;;;;5044495;28;20124;-74
2023/04/17 00:45:30;;;;;;;1.48;1.00;;;;;;;;;;5045382;28;20391;-70
2023/04/17 00:47:58;;;;;;;2.07;1.20;;;;;;;;;;5041661;28;20651;-68
2023/04/17 00:50:24;;;;;;;2.33;0.95;;;;;;;;;;5030132;28;20283;-73
2023/04/17 00:52:49;;;;;;;1.30;0.88;;;;;;;;;;5033141;28;20243;-72
2023/04/17 00:55:14;;;;;;;2.55;1.13;;;;;;;;;;5038233;28;20029;-66
2023/04/17 00:57:40;;;;;;;1.50;1.10;;;;;;;;;;5039491;28;20526;-75
2023/04/17 01:00:08;;;;;;;2.40;1.17;;;;;;;;;;5045776;28;20834;-68
2023/04/17 01:02:33;;;;;;;2.40;1.40;;;;;;;;;;5038289;28;20576;-75
2023/04/17 01:04:58;;;;;;;2.27;1.20;;;;;;;;;;5043728;28;20608;-69
2023/04/17 01:07:23;;;;;;;2.03;1.30;;;;;;;;;;5040418;28;20452;-70
2023/04/17 01:09:49;;;;;;;1.43;1.03;;;;;;;;;;5044771;28;20306;-66
2023/04/17 01:12:21;;;;;;;1.70;1.00;;;;;;;;;;5044382;28;20274;-72
2023/04/17 01:14:46;;;;;;;1.90;1.02;;;;;;;;;;5045273;28;20044;-69
2023/04/17 01:17:14;;;;;;;2.17;1.10;;;;;;;;;;5034724;28;20038;-67
2023/04/17 01:19:40;;;;;;;1.40;0.90;;;;;;;;;;5044802;28;20438;-68
2023/04/17 01:22:05;;;;;;;1.80;1.17;;;;;;;;;;5039838;28;20041;-71
2023/04/17 01:24:31;;;;;;;3.08;1.25;;;;;;;;;;5044462;28;20037;-69
2023/04/17 01:26:56;;;;;;;2.00;1.07;;;;;;;;;;5044991;28;20112;-68
2023/04/17 01:29:21;;;;;;;2.05;1.08;;;;;;;;;;5045153;28;20283;-69
2023/04/17 01:31:46;;;;;;;2.13;1.20;;;;;;;;;;5032706;28;20120;-65
2023/04/17 01:34:12;;;;;;;1.80;1.10;;;;;;;;;;5041280;28;20283;-72
2023/04/17 01:36:37;;;;;;;2.47;1.20;;;;;;;;;;5044965;28;20810;-73
2023/04/17 01:39:03;;;;;;;1.47;0.90;;;;;;;;;;5045403;28;20510;-74
2023/04/17 01:41:28;;;;;;;2.45;1.10;;;;;;;;;;5042608;28;20835;-74
2023/04/17 01:43:53;;;;;;;2.35;1.20;;;;;;;;;;5045360;28;20068;-67
2023/04/17 01:46:18;;;;;;;1.40;1.00;;;;;;;;;;5038930;28;20033;-76
2023/04/17 01:48:44;;;;;;;1.92;1.02;;;;;;;;;;5030689;28;20796;-63
2023/04/17 01:51:09;;;;;;;1.90;1.17;;;;;;;;;;5033593;28;20059;-73
2023/04/17 01:53:35;;;;;;;2.00;1.13;;;;;;;;;;5025993;28;20453;-69
2023/04/17 01:56:00;;;;;;;1.45;0.98;;;;;;;;;;5027677;28;20379;-63
2023/04/17 01:58:25;;;;;;;1.77;1.05;;;;;;;;;;5041421;28;20070;-66
2023/04/17 02:00:51;;;;;;;2.05;1.25;;;;;;;;;;5047518;28;20127;-73
2023/04/17 02:03:16;;;;;;;1.80;1.07;;;;;;;;;;5046130;28;20044;-71
2023/04/17 02:05:47;;;;;;;2.05;1.10;;;;;;;;;;5043079;28;20063;-65
2023/04/17 02:08:12;;;;;;;1.88;1.05;;;;;;;;;;5036904;28;20041;-73
2023/04/17 02:10:38;;;;;;;1.58;1.10;;;;;;;;;;5040586;28;20428;-66
2023/04/17 02:13:03;;;;;;;1.90;1.15;;;;;;;;;;5048835;28;20037;-70
2023/04/17 02:15:28;;;;;;;3.87;1.20;;;;;;;;;;5047572;28;20044;-70
2023/04/17 02:17:53;;;;;;;1.83;1.00;;;;;;;;;;5050320;28;20283;-62
2023/04/17 02:20:18;;;;;;;1.53;0.97;;;;;;;;;;5049086;28;20053;-76
2023/04/17 02:22:44;;;;;;;1.65;0.95;;;;;;;;;;5035081;28;20286;-65
2023/04/17 02:25:09;;;;;;;1.77;1.00;;;;;;;;;;5034329;28;20056;-71
2023/04/17 02:27:35;;;;;;;1.73;0.90;;;;;;;;;;5046685;28;20292;-71
2023/04/17 02:30:00;;;;;;;2.20;1.15;;;;;;;;;;5047767;28;20337;-70
2023/04/17 02:32:25;;;;;;;1.58;1.13;;;;;;;;;;5046076;28;20867;-75
2023/04/17 02:34:51;;;;;;;1.90;1.10;;;;;;;;;;5048243;28;20387;-64
2023/04/17 02:37:16;;;;;;;2.60;1.10;;;;;;;;;;5047498;28;20291;-70
2023/04/17 02:39:41;;;;;;;2.27;0.97;;;;;;;;;;5047768;28;20049;-69
2023/04/17 02:42:07;;;;;;;1.80;1.25;;;;;;;;;;5048280;28;21270;-73
2023/04/17 02:44:32;;;;;;;1.95;1.23;;;;;;;;;;5048002;28;20033;-67
2023/04/17 02:46:57;;;;;;;1.60;1.10;;;;;;;;;;5044653;28;20117;-75
2023/04/17 02:49:22;;;;;;;1.50;0.97;;;;;;;;;;5048285;28;21463;-72
2023/04/17 02:51:47;;;;;;;1.50;1.00;;;;;;;;;;5043926;28;20095;-77
2023/04/17 02:54:13;;;;;;;2.03;1.00;;;;;;;;;;5042249;28;20306;-63
2023/04/17 02:56:38;;;;;;;2.33;1.30;;;;;;;;;;5030744;28;20319;-70
2023/04/17 02:59:03;;;;;;;1.47;0.80;;;;;;;;;;5027724;28;20397;-76
2023/04/17 03:01:28;;;;;;;1.87;1.20;;;;;;;;;;5030181;28;20454;-75
2023/04/17 03:03:54;;;;;;;3.70;1.48;;;;;;;;;;5040029;28;20067;-66
2023/04/17 03:06:20;;;;;;;1.67;0.90;;;;;;;;;;5047570;28;20094;-71
2023/04/17 03:08:45;;;;;;;1.85;0.90;;;;;;;;;;5037549;28;20409;-73
2023/04/17 03:11:11;;;;;;;1.97;1.03;;;;;;;;;;5039422;28;20112;-70
2023/04/17 03:13:36;;;;;;;1.58;1.00;;;;;;;;;;5035800;28;20904;-66
2023/04/17 03:16:02;;;;;;;1.95;1.20;;;;;;;;;;5038494;28;20049;-72
2023/04/17 03:18:27;;;;;;;1.73;1.00;;;;;;;;;;5038739;28;20045;-73
2023/04/17 03:20:53;;;;;;;1.70;1.10;;;;;;;;;;5041403;28;20429;-70
2023/04/17 03:23:18;;;;;;;2.03;1.00;;;;;;;;;;5037226;28;20319;-72
2023/04/17 03:25:43;;;;;;;1.30;0.80;;;;;;;;;;5047230;28;20077;-73
2023/04/17 03:28:08;;;;;;;1.60;1.10;;;;;;;;;;5051725;28;20488;-69
2023/04/17 03:30:33;;;;;;;1.92;1.10;;;;;;;;;;5050890;28;20739;-75
2023/04/17 03:32:59;;;;;;;1.90;1.07;;;;;;;;;;5034095;28;20036;-70
2023/04/17 03:35:24;;;;;;;2.40;1.23;;;;;;;;;;5043183;28;20029;-71
2023/04/17 03:37:50;;;;;;;1.90;0.80;;;;;;;;;;5047068;28;20029;-72
2023/04/17 03:40:15;;;;;;;1.45;0.90;;;;;;;;;;5046760;28;20484;-72
2023/04/17 03:42:40;;;;;;;2.03;1.08;;;;;;;;;;5046217;28;20119;-71
2023/04/17 03:45:06;;;;;;;1.70;1.10;;;;;;;;;;5043710;28;20493;-74
2023/04/17 03:47:31;;;;;;;2.13;0.98;;;;;;;;;;5045175;28;20108;-71
2023/04/17 03:49:56;;;;;;;2.10;1.30;;;;;;;;;;5046495;28;20037;-65
2023/04/17 03:52:22;;;;;;;1.93;1.10;;;;;;;;;;5036157;28;20118;-71
2023/04/17 03:54:47;;;;;;;1.65;1.00;;;;;;;;;;5032906;28;20836;-75
2023/04/17 03:57:12;;;;;;;2.08;0.90;;;;;;;;;;5046865;28;20044;-73
2023/04/17 03:59:38;;;;;;;1.45;0.80;;;;;;;;;;5027051;28;20080;-66
2023/04/17 04:02:03;;;;;;;1.90;1.10;;;;;;;;;;5045095;28;20048;-69
2023/04/17 04:04:28;;;;;;;1.83;1.07;;;;;;;;;;5035607;28;20896;-64
2023/04/17 04:06:56;;;;;;;1.85;0.90;;;;;;;;;;5036491;28;20048;-68
2023/04/17 04:09:21;;;;;;;2.13;0.95;;;;;;;;;;5046524;28;20425;-65
2023/04/17 04:11:47;;;;;;;2.40;1.10;;;;;;;;;;5046273;28;20028;-72
2023/04/17 04:14:12;;;;;;;1.70;1.00;;;;;;;;;;5046322;28;20733;-71
2023/04/17 04:16:37;;;;;;;2.00;1.00;;;;;;;;;;5044296;28;20025;-72
2023/04/17 04:19:02;;;;;;;1.27;0.80;;;;;;;;;;5035309;28;20043;-67
2023/04/17 04:21:27;;;;;;;1.37;0.90;;;;;;;;;;5033874;28;20279;-69
2023/04/17 04:23:55;;;;;;;2.17;1.23;;;;;;;;;;5046124;28;20538;-71
2023/04/17 04:26:20;;;;;;;1.35;0.90;;;;;;;;;;5031571;28;20752;-64
2023/04/17 04:28:46;;;;;;;2.33;0.95;;;;;;;;;;5040760;28;20100;-70
2023/04/17 04:31:13;;;;;;;2.10;1.30;;;;;;;;;;5035380;28;20116;-71
2023/04/17 04:33:38;;;;;;;1.60;0.90;;;;;;;;;;5040230;28;20046;-72
2023/04/17 04:36:03;;;;;;;1.70;1.17;;;;;;;;;;5039532;28;20454;-74
2023/04/17 04:38:29;;;;;;;1.40;0.80;;;;;;;;;;5027685;28;20292;-61
2023/04/17 04:41:00;;;;;;;1.65;0.88;;;;;;;;;;5038918;28;20062;-77
2023/04/17 04:43:27;;;;;;;1.38;0.95;;;;;;;;;;5042036;28;20020;-73
2023/04/17 04:45:52;;;;;;;2.22;1.20;;;;;;;;;;5041561;28;20048;-74
2023/04/17 04:48:17;;;;;;;3.03;1.10;;;;;;;;;;5032332;28;20045;-74
2023/04/17 04:50:43;;;;;;;1.73;1.13;;;;;;;;;;5041752;28;20501;-73
2023/04/17 04:53:08;;;;;;;3.17;1.00;;;;;;;;;;5045602;28;20274;-70
2023/04/17 04:55:33;;;;;;;3.40;1.13;;;;;;;;;;5039566;28;20771;-72
2023/04/17 04:57:58;;;;;;;2.43;1.00;;;;;;;;;;5043061;28;20264;-68
2023/04/17 05:00:24;;;;;;;1.77;1.17;;;;;;;;;;5032058;28;20303;-64
2023/04/17 05:02:49;;;;;;;2.43;1.17;;;;;;;;;;5039929;28;20275;-72
2023/04/17 05:05:14;;;;;;;1.90;1.10;;;;;;;;;;5025604;28;20037;-74
2023/04/17 05:07:40;;;;;;;2.00;1.10;;;;;;;;;;5027377;28;20285;-67
2023/04/17 05:10:05;;;;;;;2.83;1.17;;;;;;;;;;5032073;28;20272;-68
2023/04/17 05:12:31;;;;;;;3.17;1.27;;;;;;;;;;5032998;28;20466;-77
2023/04/17 05:14:57;;;;;;;2.53;1.38;;;;;;;;;;5043323;28;20478;-66
2023/04/17 05:17:22;;;;;;;1.93;1.17;;;;;;;;;;5035985;28;20029;-67
2023/04/17 05:19:47;;;;;;;8.82;1.48;;;;;;;;;;5036358;28;20379;-68
2023/04/17 05:22:12;;;;;;;1.63;1.27;;;;;;;;;;5044507;28;20040;-74
2023/04/17 05:24:38;;;;;;;3.13;1.20;;;;;;;;;;5039345;28;20033;-67
2023/04/17 05:27:03;;;;;;;2.40;1.00;;;;;;;;;;5050514;28;20265;-74
2023/04/17 05:29:29;;;;;;;3.77;1.23;;;;;;;;;;5027642;28;20279;-74
2023/04/17 05:31:54;;;;;;;2.80;1.20;;;;;;;;;;5031597;28;20044;-71
2023/04/17 05:34:19;;;;;;;3.60;0.90;;;;;;;;;;5036222;28;20056;-70
2023/04/17 05:36:45;;;;;;;3.03;1.10;;;;;;;;;;5034319;28;20336;-72
2023/04/17 05:39:10;;;;;;;2.22;1.33;;;;;;;;;;5038044;28;20049;-62
2023/04/17 05:41:35;;;;;;;2.75;1.40;;;;;;;;;;5040362;28;20047;-70
2023/04/17 05:44:00;;;;;;;2.43;1.20;;;;;;;;;;5039213;28;20037;-70
2023/04/17 05:46:25;;;;;;;3.47;1.00;;;;;;;;;;5033043;28;20114;-70
2023/04/17 05:48:51;;;;;;;3.77;1.00;;;;;;;;;;5035403;28;20312;-65
2023/04/17 05:51:16;;;;;;;2.30;1.20;;;;;;;;;;5037054;28;20315;-64
2023/04/17 05:53:43;;;;;;;2.77;1.10;;;;;;;;;;5044737;28;20310;-69
2023/04/17 05:56:09;;;;;;;2.65;1.25;;;;;;;;;;5030421;28;20040;-68
2023/04/17 05:58:34;;;;;;;3.60;1.10;;;;;;;;;;5024435;28;20088;-63
2023/04/17 06:01:01;;;;;;;3.35;1.30;;;;;;;;;;5036575;28;20033;-62
2023/04/17 06:03:26;;;;;;;2.10;1.08;;;;;;;;;;5036851;28;20116;-62
2023/04/17 06:05:51;;;;;;;6.32;0.98;;;;;;;;;;5038548;28;20115;-65
2023/04/17 06:08:16;;;;;;;3.00;1.57;;;;;;;;;;5037716;28;20040;-66
2023/04/17 06:10:44;;;;;;;3.60;1.57;;;;;;;;;;5030170;28;20307;-69
2023/04/17 06:13:09;;;;;;;2.33;1.13;;;;;;;;;;5044034;28;20287;-70
2023/04/17 06:15:35;;;;;;;3.10;1.10;;;;;;;;;;5043664;28;20118;-67
2023/04/17 06:18:00;;;;;;;2.53;1.50;;;;;;;;;;5037421;28;20331;-71
2023/04/17 06:20:25;;;;;;;2.72;1.30;;;;;;;;;;5028779;28;20053;-70
2023/04/17 06:22:51;;;;;;;1.90;1.10;;;;;;;;;;5032742;28;20047;-62
2023/04/17 06:25:17;;;;;;;2.97;1.30;;;;;;;;;;5030233;28;20033;-63
2023/04/17 06:27:42;;;;;;;3.35;1.30;;;;;;;;;;5038223;28;20307;-65
2023/04/17 06:30:07;;;;;;;2.30;1.42;;;;;;;;;;5034207;28;20041;-73
2023/04/17 06:32:33;;;;;;;1.90;1.42;;;;;;;;;;5036272;28;20029;-67
2023/04/17 06:34:58;;;;;;;2.20;1.10;;;;;;;;;;5029119;28;20481;-66
2023/04/17 06:37:23;;;;;;;1.60;0.97;;;;;;;;;;5043753;28;20282;-71
2023/04/17 06:39:48;;;;;;;2.13;1.10;;;;;;;;;;5036914;28;20056;-74
2023/04/17 06:42:15;;;;;;;2.73;1.33;;;;;;;;;;5029910;28;20017;-64
2023/04/17 06:44:40;;;;;;;1.95;0.95;;;;;;;;;;5031265;28;20483;-60
2023/04/17 06:47:05;;;;;;;2.78;1.10;;;;;;;;;;5045636;28;20040;-66
2023/04/17 06:49:31;;;;;;;1.83;0.90;;;;;;;;;;5038792;28;20072;-61
2023/04/17 06:51:57;;;;;;;3.27;1.20;;;;;;;;;;5037318;28;20364;-63
2023/04/17 06:54:22;;;;;;;3.78;1.10;;;;;;;;;;5046511;28;20341;-69
2023/04/17 06:56:47;;;;;;;2.13;1.20;;;;;;;;;;5041137;28;20481;-64
2023/04/17 06:59:13;;;;;;;4.93;1.30;;;;;;;;;;5041518;28;20326;-70
2023/04/17 07:01:39;;;;;;;2.20;1.30;;;;;;;;;;5044361;28;20544;-61
2023/04/17 07:04:04;;;;;;;1.83;1.00;;;;;;;;;;5047606;28;20055;-59
2023/04/17 07:06:32;;;;;;;3.65;1.10;;;;;;;;;;5035945;28;20530;-66
2023/04/17 07:08:57;;;;;;;4.65;1.10;;;;;;;;;;5028919;28;20045;-65
2023/04/17 07:11:23;;;;;;;2.20;1.10;;;;;;;;;;5043573;28;20053;-62
2023/04/17 07:13:48;;;;;;;2.93;1.00;;;;;;;;;;5031258;28;20037;-65
2023/04/17 07:16:13;;;;;;;3.17;1.30;;;;;;;;;;5041230;28;20269;-61
2023/04/17 07:18:38;;;;;;;2.53;1.20;;;;;;;;;;5034035;28;20398;-62
2023/04/17 07:21:04;;;;;;;2.30;1.30;;;;;;;;;;5038722;28;20040;-65
2023/04/17 07:23:29;;;;;;;3.00;1.20;;;;;;;;;;5043013;28;20118;-64
2023/04/17 07:25:55;;;;;;;2.22;1.10;;;;;;;;;;5037321;28;20059;-68
2023/04/17 07:28:20;;;;;;;2.10;1.07;;;;;;;;;;5037186;28;20547;-64
2023/04/17 07:30:45;;;;;;;2.20;1.00;;;;;;;;;;5031139;28;20434;-67
2023/04/17 07:33:10;;;;;;;2.90;1.20;;;;;;;;;;5033870;28;20305;-63
2023/04/17 07:35:36;;;;;;;3.90;1.13;;;;;;;;;;5033829;28;20284;-63
2023/04/17 07:38:02;;;;;;;1.93;1.20;;;;;;;;;;5031032;28;20307;-60
2023/04/17 07:40:28;;;;;;;3.38;1.02;;;;;;;;;;5037879;28;20394;-70
2023/04/17 07:42:55;;;;;;;1.90;1.10;;;;;;;;;;5041895;28;20567;-63
2023/04/17 07:45:20;;;;;;;1.63;1.02;;;;;;;;;;5035464;28;20464;-62
2023/04/17 07:47:45;;;;;;;1.85;1.10;;;;;;;;;;5042118;28;20146;-64
2023/04/17 07:50:10;;;;;;;3.00;1.00;;;;;;;;;;5045924;28;20688;-68
2023/04/17 07:52:36;;;;;;;1.77;1.05;;;;;;;;;;5034362;28;20424;-65
2023/04/17 07:55:01;;;;;;;2.67;1.10;;;;;;;;;;5036218;28;20530;-64
2023/04/17 07:57:26;;;;;;;3.87;1.00;;;;;;;;;;5032999;28;20083;-67
2023/04/17 07:59:54;;;;;;;1.97;1.20;;;;;;;;;;5027331;28;20834;-61
2023/04/17 08:02:19;;;;;;;2.83;1.13;;;;;;;;;;5043349;28;20032;-63
2023/04/17 08:04:45;;;;;;;3.03;1.00;;;;;;;;;;5036098;28;20034;-64
2023/04/17 08:07:11;;;;;;;2.83;1.20;;;;;;;;;;5037760;28;20287;-60
2023/04/17 08:09:37;;;;;;;3.65;1.10;;;;;;;;;;5047443;28;20122;-66
2023/04/17 08:12:02;;;;;;;3.40;1.05;;;;;;;;;;5041531;28;20170;-68
2023/04/17 08:14:27;;;;;;;1.92;0.90;;;;;;;;;;5044568;28;20021;-68
2023/04/17 08:16:52;;;;;;;2.72;1.17;;;;;;;;;;5031436;28;20029;-67
2023/04/17 08:19:18;;;;;;;3.10;1.53;;;;;;;;;;5032721;28;20049;-63
2023/04/17 08:21:43;;;;;;;2.33;1.10;;;;;;;;;;5040928;28;20045;-64
2023/04/17 08:24:08;;;;;;;2.40;1.10;;;;;;;;;;5025794;28;20448;-67
2023/04/17 08:26:34;;;;;;;2.53;1.30;;;;;;;;;;5040052;28;20440;-68
2023/04/17 08:29:00;;;;;;;5.05;1.20;;;;;;;;;;5027141;28;20064;-63
2023/04/17 08:31:26;;;;;;;3.45;1.10;;;;;;;;;;5034908;28;20482;-65
2023/04/17 08:33:52;;;;;;;3.70;1.17;;;;;;;;;;5026156;28;20453;-66
2023/04/17 08:36:17;;;;;;;4.37;1.63;;;;;;;;;;5028641;28;20040;-60
2023/04/17 08:38:43;;;;;;;2.90;1.40;;;;;;;;;;5042998;28;20827;-62
2023/04/17 08:41:09;;;;;;;5.47;1.60;;;;;;;;;;5044915;28;20551;-69
2023/04/17 08:43:34;;;;;;;2.87;1.20;;;;;;;;;;5046083;28;20745;-62
2023/04/17 08:45:59;;;;;;;2.40;1.20;;;;;;;;;;5031339;28;20279;-65
2023/04/17 08:48:25;;;;;;;3.28;1.30;;;;;;;;;;5033475;28;20464;-66
2023/04/17 08:50:51;;;;;;;2.58;1.17;;;;;;;;;;5025533;28;20169;-68
2023/04/17 08:53:16;;;;;;;4.15;1.30;;;;;;;;;;5024030;28;20429;-63
2023/04/17 08:55:42;;;;;;;2.55;1.27;;;;;;;;;;5045292;28;20112;-64
2023/04/17 08:58:08;;;;;;;2.78;1.10;;;;;;;;;;5042322;28;20040;-67
2023/04/17 09:00:36;;;;;;;1.67;1.13;;;;;;;;;;5030185;28;20041;-66
2023/04/17 09:03:06;;;;;;;2.35;1.35;;;;;;;;;;5026509;28;20045;-62
2023/04/17 09:05:37;;;;;;;;;;;;;;;;;;5038305;28;20041;-65
2023/04/17 09:08:06;;;;;;;4.00;1.30;;;;;;;;;;5039795;28;20011;-69
2023/04/17 09:10:41;;;;;;;2.45;1.23;;;;;;;;;;5031211;28;20025;-66
2023/04/17 09:13:07;;;;;;;3.00;1.48;;;;;;;;;;5034658;28;20383;-66
2023/04/17 09:15:32;;;;;;;2.67;1.15;;;;;;;;;;5027507;28;20053;-64
2023/04/17 09:17:58;;;;;;;2.08;1.17;;;;;;;;;;5043419;28;20520;-64
2023/04/17 09:20:23;;;;;;;2.63;1.10;;;;;;;;;;5032176;28;20037;-66
2023/04/17 09:22:48;;;;;;;3.42;1.35;;;;;;;;;;5036097;28;20049;-67
2023/04/17 09:25:15;;;;;;;4.03;1.60;;;;;;;;;;5036605;28;20108;-64
2023/04/17 09:27:40;;;;;;;2.63;1.27;;;;;;;;;;5035979;28;20110;-64
2023/04/17 09:30:05;;;;;;;2.33;1.40;;;;;;;;;;5041172;28;20513;-63
2023/04/17 09:32:31;;;;;;;2.85;1.30;;;;;;;;;;5027011;28;20501;-68
2023/04/17 09:34:57;;;;;;;3.50;1.50;;;;;;;;;;5036921;28;20620;-63
2023/04/17 09:37:22;;;;;;;2.08;1.17;;;;;;;;;;5025606;28;20171;-60
2023/04/17 09:39:57;;;;;;;2.03;1.30;;;;;;;;;;5026145;28;20038;-65
2023/04/17 09:42:23;;;;;;;3.55;1.20;;;;;;;;;;5026566;28;20033;-67
2023/04/17 09:44:48;;;;;;;2.55;1.30;;;;;;;;;;5027431;28;20041;-64
2023/04/17 09:47:14;;;;;;;2.22;1.40;;;;;;;;;;5024206;28;20089;-64
2023/04/17 09:49:48;;;;;;;2.38;1.65;;;;;;;;;;5025537;28;20092;-65
2023/04/17 09:52:13;;;;;;;2.90;1.83;;;;;;;;;;5036858;28;20118;-64
2023/04/17 09:54:39;;;;;;;2.80;1.55;;;;;;;;;;5031906;28;21010;-65
2023/04/17 09:57:07;;;;;;;3.47;2.17;;;;;;;;;;5027363;28;20087;-66
2023/04/17 09:59:33;;;;;;;20.58;5.45;;;;;;;;;;5035997;28;20314;-64
2023/04/17 10:01:58;;;;;;;8.77;3.30;;;;;;;;;;5037582;28;20029;-60
2023/04/17 10:04:24;;;;;;;8.15;3.45;;;;;;;;;;5044938;28;21377;-67
2023/04/17 10:06:49;;;;;;;8.18;4.40;;;;;;;;;;5033286;28;20029;-59
2023/04/17 10:09:14;;;;;;;11.40;5.40;;;;;;;;;;5044940;28;20041;-66
2023/04/17 10:11:40;;;;;;;13.13;6.55;;;;;;;;;;5036695;28;20498;-69
2023/04/17 10:14:18;;;;;;;14.43;7.35;;;;;;;;;;5026945;28;20034;-60
2023/04/17 10:16:43;;;;;;;15.52;8.23;;;;;;;;;;5046176;28;20040;-63
2023/04/17 10:19:28;;;;;;;18.90;11.73;;;;;;;;;;5030845;28;20037;-63
2023/04/17 10:22:12;;;;;;;23.08;12.95;;;;;;;;;;5045593;28;21613;-60
2023/04/17 10:24:37;;;;;;;21.65;12.30;;;;;;;;;;5046163;28;20025;-61
2023/04/17 10:27:22;;;;;;;22.47;13.53;;;;;;;;;;5036349;28;20029;-65
2023/04/17 10:29:57;;;;;;;23.15;13.38;;;;;;;;;;5047492;28;20041;-62
2023/04/17 10:32:27;;;;;;;28.50;15.73;;;;;;;;;;5032013;28;20521;-65
2023/04/17 10:34:53;;;;;;;27.50;16.55;;;;;;;;;;5041956;28;20025;-64
2023/04/17 10:37:21;;;;;;;29.23;17.30;;;;;;;;;;5029290;28;20057;-66
2023/04/17 10:39:47;;;;;;;27.83;17.27;;;;;;;;;;5026758;28;20037;-59
2023/04/17 10:42:16;;;;;;;29.85;16.65;;;;;;;;;;5043523;28;20094;-62
2023/04/17 10:44:41;;;;;;;29.92;18.83;;;;;;;;;;5033070;28;20112;-64
2023/04/17 10:47:07;;;;;;;38.27;22.03;;;;;;;;;;5027613;28;20097;-62
2023/04/17 10:49:50;;;;;;;33.22;19.42;;;;;;;;;;5042756;28;20120;-67
2023/04/17 10:52:31;;;;;;;32.20;20.25;;;;;;;;;;5035472;28;20106;-65
2023/04/17 10:55:03;;;;;;;33.83;21.05;;;;;;;;;;5029408;28;20107;-67
2023/04/17 10:57:48;;;;;;;33.15;20.42;;;;;;;;;;5045719;28;20034;-63
2023/04/17 11:00:14;;;;;;;33.72;21.67;;;;;;;;;;5031137;28;20041;-61
2023/04/17 11:02:40;;;;;;;35.90;22.50;;;;;;;;;;5027676;28;20079;-62
2023/04/17 11:05:06;;;;;;;40.67;24.40;;;;;;;;;;5026893;28;20052;-64
2023/04/17 11:07:31;;;;;;;40.47;26.10;;;;;;;;;;5052426;28;20037;-65
2023/04/17 11:09:56;;;;;;;46.70;29.37;;;;;;;;;;5038754;28;20064;-58
2023/04/17 11:12:21;;;;;;;40.30;25.37;;;;;;;;;;5032209;28;20024;-60
2023/04/17 11:14:46;;;;;;;47.47;29.77;;;;;;;;;;5030589;28;20017;-61
2023/04/17 11:17:12;;;;;;;51.70;30.93;;;;;;;;;;5033611;28;20260;-61
2023/04/17 11:19:37;;;;;;;48.83;31.73;;;;;;;;;;5038534;28;20030;-62
2023/04/17 11:22:03;;;;;;;40.33;27.13;;;;;;;;;;5043093;28;20063;-63
2023/04/17 11:24:28;;;;;;;32.50;21.00;;;;;;;;;;5045221;28;20005;-61
2023/04/17 11:26:55;;;;;;;43.85;27.33;;;;;;;;;;5043826;28;20067;-65
2023/04/17 11:29:21;;;;;;;46.67;30.30;;;;;;;;;;5027914;28;20072;-61
2023/04/17 11:31:46;;;;;;;47.88;28.17;;;;;;;;;;5026384;28;20059;-65
2023/04/17 11:34:12;;;;;;;49.55;30.92;;;;;;;;;;5043256;28;20021;-64
2023/04/17 11:36:37;;;;;;;46.42;30.95;;;;;;;;;;5038275;28;20453;-65
2023/04/17 11:39:03;;;;;;;49.03;31.77;;;;;;;;;;5041943;28;20543;-65
2023/04/17 11:41:38;;;;;;;47.55;31.95;;;;;;;;;;5036147;28;20100;-63
2023/04/17 11:44:03;;;;;;;48.72;31.27;;;;;;;;;;5038141;28;20055;-59
2023/04/17 11:46:28;;;;;;;45.17;29.70;;;;;;;;;;5035268;28;20021;-64
2023/04/17 11:48:54;;;;;;;51.50;32.40;;;;;;;;;;5026721;28;20037;-63
2023/04/17 11:51:19;;;;;;;51.37;33.20;;;;;;;;;;5038381;28;20029;-63
2023/04/17 11:53:45;;;;;;;48.58;30.90;;;;;;;;;;5045607;28;20090;-63
2023/04/17 11:56:14;;;;;;;52.67;33.65;;;;;;;;;;5038226;28;20524;-66
2023/04/17 11:58:45;;;;;;;49.00;32.70;;;;;;;;;;5032546;28;20055;-61
2023/04/17 12:01:12;;;;;;;50.20;33.35;;;;;;;;;;5037849;28;20047;-61
2023/04/17 12:03:37;;;;;;;50.10;33.10;;;;;;;;;;5037603;28;20048;-66
2023/04/17 12:06:03;;;;;;;50.07;32.90;;;;;;;;;;5038193;28;20021;-62
2023/04/17 12:08:28;;;;;;;54.13;34.92;;;;;;;;;;5047514;28;20278;-63
2023/04/17 12:10:53;;;;;;;49.85;33.65;;;;;;;;;;5039687;28;20522;-62
2023/04/17 12:13:19;;;;;;;47.85;31.40;;;;;;;;;;5025921;28;20037;-64
2023/04/17 12:15:45;;;;;;;45.22;29.63;;;;;;;;;;5035314;28;20061;-63
2023/04/17 12:18:10;;;;;;;46.13;31.97;;;;;;;;;;5042127;28;20057;-65
2023/04/17 12:20:35;;;;;;;45.10;31.35;;;;;;;;;;5032057;28;20060;-66
2023/04/17 12:23:01;;;;;;;47.25;30.58;;;;;;;;;;5039872;28;20038;-62
2023/04/17 12:25:26;;;;;;;44.65;30.67;;;;;;;;;;5041365;28;20079;-61
2023/04/17 12:27:52;;;;;;;42.85;29.08;;;;;;;;;;5040352;28;20112;-64
2023/04/17 12:30:17;;;;;;;45.90;30.38;;;;;;;;;;5041014;28;20528;-62
2023/04/17 12:32:47;;;;;;;46.08;31.13;;;;;;;;;;5026630;28;20580;-62
2023/04/17 12:35:12;;;;;;;45.45;30.05;;;;;;;;;;5044897;28;20060;-62
2023/04/17 12:37:38;;;;;;;46.40;31.00;;;;;;;;;;5040173;28;20422;-65
2023/04/17 12:40:03;;;;;;;46.10;30.37;;;;;;;;;;5033862;28;20488;-68
2023/04/17 12:42:29;;;;;;;44.08;30.42;;;;;;;;;;5029378;28;20276;-65
2023/04/17 12:44:54;;;;;;;43.08;29.45;;;;;;;;;;5037522;28;20025;-63
2023/04/17 12:47:19;;;;;;;46.33;30.10;;;;;;;;;;5028890;28;20402;-67
2023/04/17 12:49:45;;;;;;;44.10;29.67;;;;;;;;;;5046399;28;20320;-68
2023/04/17 12:52:10;;;;;;;44.35;29.23;;;;;;;;;;5042124;28;20115;-68
2023/04/17 12:54:36;;;;;;;45.23;29.73;;;;;;;;;;5025456;28;20500;-65
2023/04/17 12:57:01;;;;;;;43.33;29.08;;;;;;;;;;5027803;28;20037;-65
2023/04/17 12:59:26;;;;;;;45.53;29.95;;;;;;;;;;5035721;28;20160;-63
2023/04/17 13:01:51;;;;;;;44.63;30.60;;;;;;;;;;5038308;28;20047;-62
2023/04/17 13:04:17;;;;;;;43.23;28.83;;;;;;;;;;5026238;28;20276;-62
2023/04/17 13:06:42;;;;;;;39.43;27.50;;;;;;;;;;5034513;28;20151;-64
2023/04/17 13:09:07;;;;;;;39.57;27.63;;;;;;;;;;5039700;28;20301;-65
2023/04/17 13:11:32;;;;;;;41.63;28.07;;;;;;;;;;5033780;28;20108;-64
2023/04/17 13:13:58;;;;;;;41.47;28.47;;;;;;;;;;5045472;28;20280;-62
2023/04/17 13:16:23;;;;;;;39.20;27.43;;;;;;;;;;5042842;28;20082;-63
2023/04/17 13:18:49;;;;;;;41.60;27.65;;;;;;;;;;5041666;28;20668;-61
2023/04/17 13:21:14;;;;;;;39.73;27.87;;;;;;;;;;5028442;28;20040;-62
2023/04/17 13:23:40;;;;;;;40.13;27.97;;;;;;;;;;5033811;28;20021;-62
2023/04/17 13:26:05;;;;;;;41.10;28.07;;;;;;;;;;5035963;28;20476;-58
2023/04/17 13:28:30;;;;;;;39.30;26.90;;;;;;;;;;5025763;28;20712;-65
2023/04/17 13:30:55;;;;;;;39.27;27.27;;;;;;;;;;5044607;28;20834;-62
2023/04/17 13:33:20;;;;;;;38.97;27.23;;;;;;;;;;5032033;28;20520;-62
2023/04/17 13:35:46;;;;;;;39.33;27.83;;;;;;;;;;5036180;28;20130;-65
2023/04/17 13:38:11;;;;;;;39.33;26.37;;;;;;;;;;5025536;28;20406;-65
2023/04/17 13:40:37;;;;;;;38.57;27.50;;;;;;;;;;5030038;28;20315;-62
2023/04/17 13:43:04;;;;;;;40.10;27.65;;;;;;;;;;5041803;28;20124;-63
2023/04/17 13:45:30;;;;;;;36.92;25.52;;;;;;;;;;5025350;28;20021;-67
2023/04/17 13:47:55;;;;;;;36.83;25.60;;;;;;;;;;5024398;28;20434;-64
2023/04/17 13:50:20;;;;;;;36.27;25.50;;;;;;;;;;5025338;28;20383;-66
2023/04/17 13:52:45;;;;;;;38.13;26.07;;;;;;;;;;5026715;28;20500;-62
2023/04/17 13:55:13;;;;;;;38.60;26.03;;;;;;;;;;5033639;28;20531;-60
2023/04/17 13:57:38;;;;;;;37.05;24.75;;;;;;;;;;5029995;28;20439;-62
2023/04/17 14:00:04;;;;;;;36.13;25.53;;;;;;;;;;5034454;28;20128;-59
2023/04/17 14:02:29;;;;;;;35.53;25.05;;;;;;;;;;5032533;28;20294;-62
2023/04/17 14:04:54;;;;;;;34.83;24.85;;;;;;;;;;5033441;28;20415;-60
2023/04/17 14:07:19;;;;;;;34.37;24.37;;;;;;;;;;5023398;28;20034;-61
2023/04/17 14:09:45;;;;;;;36.97;25.00;;;;;;;;;;5025350;28;20264;-63
2023/04/17 14:12:10;;;;;;;37.10;25.57;;;;;;;;;;5028041;28;20339;-66
2023/04/17 14:14:35;;;;;;;36.85;24.50;;;;;;;;;;5031370;28;20275;-65
2023/04/17 14:17:01;;;;;;;38.03;23.67;;;;;;;;;;5028356;28;20045;-64
2023/04/17 14:19:26;;;;;;;34.22;24.33;;;;;;;;;;5037156;28;20813;-65
2023/04/17 14:21:51;;;;;;;34.08;24.08;;;;;;;;;;5025458;28;20048;-69
2023/04/17 14:24:16;;;;;;;34.80;24.33;;;;;;;;;;5037604;28;20444;-66
2023/04/17 14:26:42;;;;;;;33.05;24.20;;;;;;;;;;5027079;28;20033;-64
2023/04/17 14:29:09;;;;;;;33.77;23.70;;;;;;;;;;5042649;28;20033;-64